createdAt,value
2022-12-20T00:01:52.565Z,8.20
2022-12-20T00:04:21.700Z,7.67
2022-12-20T00:06:49.411Z,8.83
2022-12-20T00:09:17.094Z,7.80
2022-12-20T00:11:44.710Z,8.47
2022-12-20T00:14:12.485Z,6.10
2022-12-20T00:16:40.231Z,7.57
2022-12-20T00:19:08.736Z,6.50
2022-12-20T00:21:38.225Z,5.47
2022-12-20T00:24:06.705Z,6.00
2022-12-20T00:26:35.240Z,6.57
2022-12-20T00:29:03.071Z,5.87
2022-12-20T00:31:31.461Z,6.27
2022-12-20T00:34:00.101Z,6.63
2022-12-20T00:36:28.950Z,5.87
2022-12-20T00:38:58.636Z,6.87
2022-12-20T00:41:27.128Z,7.10
2022-12-20T00:43:56.052Z,6.90
2022-12-20T00:46:24.830Z,5.80
2022-12-20T00:48:52.974Z,5.90
2022-12-20T00:51:21.546Z,7.37
2022-12-20T00:53:49.326Z,5.70
2022-12-20T00:56:18.389Z,6.20
2022-12-20T00:58:46.066Z,4.67
2022-12-20T01:01:18.622Z,6.23
2022-12-20T01:03:46.532Z,5.07
2022-12-20T01:06:14.221Z,5.57
2022-12-20T01:08:42.147Z,5.23
2022-12-20T01:11:12.176Z,5.10
2022-12-20T01:13:42.152Z,6.20
2022-12-20T01:16:11.522Z,5.80
2022-12-20T01:18:39.458Z,4.97
2022-12-20T01:21:08.697Z,4.80
2022-12-20T01:23:36.703Z,5.13
2022-12-20T01:26:05.953Z,5.10
2022-12-20T01:28:33.737Z,5.60
2022-12-20T01:31:03.109Z,5.90
2022-12-20T01:33:30.723Z,4.00
2022-12-20T01:35:59.322Z,5.03
2022-12-20T01:38:27.268Z,6.27
2022-12-20T01:40:55.704Z,7.27
2022-12-20T01:43:23.548Z,5.57
2022-12-20T01:45:51.311Z,6.63
2022-12-20T01:48:23.505Z,6.00
2022-12-20T01:50:51.280Z,5.80
2022-12-20T01:53:20.101Z,5.07
2022-12-20T01:55:48.288Z,5.57
2022-12-20T01:58:17.606Z,5.70
2022-12-20T02:00:45.329Z,6.10
2022-12-20T02:03:14.222Z,4.87
2022-12-20T02:05:45.263Z,5.40
2022-12-20T02:08:14.886Z,6.70
2022-12-20T02:10:50.279Z,6.80
2022-12-20T02:13:25.020Z,5.67
2022-12-20T02:15:55.858Z,5.93
2022-12-20T02:18:24.437Z,5.70
2022-12-20T02:20:59.511Z,4.87
2022-12-20T02:23:36.322Z,5.70
2022-12-20T02:26:15.881Z,5.43
2022-12-20T02:28:59.146Z,5.13
2022-12-20T02:31:29.759Z,6.43
2022-12-20T02:33:58.990Z,6.93
2022-12-20T02:36:26.949Z,5.70
2022-12-20T02:38:54.723Z,6.53
2022-12-20T02:41:25.005Z,6.37
2022-12-20T02:44:15.349Z,6.07
2022-12-20T02:46:44.900Z,5.83
2022-12-20T02:49:15.638Z,6.50
2022-12-20T02:51:44.603Z,7.90
2022-12-20T02:54:12.661Z,6.47
2022-12-20T02:56:43.034Z,7.23
2022-12-20T02:59:12.552Z,7.53
2022-12-20T03:01:42.737Z,7.57
2022-12-20T03:04:12.052Z,6.90
2022-12-20T03:06:40.634Z,6.20
2022-12-20T03:09:08.363Z,7.37
2022-12-20T03:11:36.037Z,8.57
2022-12-20T03:14:03.770Z,8.17
2022-12-20T03:16:31.621Z,8.03
2022-12-20T03:18:59.712Z,7.63
2022-12-20T03:21:28.693Z,7.13
2022-12-20T03:23:56.505Z,8.60
2022-12-20T03:26:24.115Z,7.90
2022-12-20T03:28:51.784Z,8.47
2022-12-20T03:31:19.721Z,8.13
2022-12-20T03:33:47.427Z,7.83
2022-12-20T03:36:15.087Z,8.47
2022-12-20T03:38:44.176Z,8.57
2022-12-20T03:41:11.850Z,7.97
2022-12-20T03:43:39.512Z,6.57
2022-12-20T03:46:07.477Z,8.30
2022-12-20T03:48:35.183Z,7.53
2022-12-20T03:51:02.903Z,7.10
2022-12-20T03:53:30.775Z,9.53
2022-12-20T03:55:59.810Z,7.50
2022-12-20T03:58:27.649Z,8.03
2022-12-20T04:00:55.327Z,8.23
2022-12-20T04:03:23.015Z,7.67
2022-12-20T04:05:50.748Z,9.27
2022-12-20T04:08:18.452Z,8.93
2022-12-20T04:11:11.819Z,8.03
2022-12-20T04:13:40.839Z,6.53
2022-12-20T04:16:09.137Z,9.13
2022-12-20T04:18:36.851Z,8.63
2022-12-20T04:21:04.904Z,9.17
2022-12-20T04:23:32.688Z,9.80
2022-12-20T04:26:00.337Z,8.13
2022-12-20T04:28:27.970Z,8.20
2022-12-20T04:30:57.129Z,9.37
2022-12-20T04:33:24.841Z,8.10
2022-12-20T04:35:53.014Z,7.50
2022-12-20T04:38:21.041Z,8.57
2022-12-20T04:40:49.798Z,8.93
2022-12-20T04:43:17.563Z,8.80
2022-12-20T04:45:45.453Z,9.07
2022-12-20T04:48:54.771Z,7.90
2022-12-20T04:51:02.203Z,9.03
2022-12-20T04:53:47.160Z,9.10
2022-12-20T04:56:15.282Z,8.97
2022-12-20T04:58:42.980Z,7.50
2022-12-20T05:01:11.124Z,10.43
2022-12-20T05:03:40.451Z,10.67
2022-12-20T05:06:08.375Z,8.70
2022-12-20T05:08:36.143Z,10.60
2022-12-20T05:11:03.864Z,9.23
2022-12-20T05:13:31.509Z,11.80
2022-12-20T05:15:59.949Z,9.13
2022-12-20T05:18:27.962Z,8.03
2022-12-20T05:21:18.114Z,9.27
2022-12-20T05:24:02.801Z,9.33
2022-12-20T05:26:31.596Z,9.47
2022-12-20T05:28:59.269Z,10.30
2022-12-20T05:31:27.060Z,8.93
2022-12-20T05:33:55.351Z,9.83
2022-12-20T05:36:24.365Z,10.00
2022-12-20T05:38:52.028Z,10.47
2022-12-20T05:41:20.096Z,10.80
2022-12-20T05:43:47.772Z,9.00
2022-12-20T05:46:15.473Z,9.87
2022-12-20T05:48:43.184Z,12.07
2022-12-20T05:51:11.195Z,10.93
2022-12-20T05:53:40.184Z,10.07
2022-12-20T05:56:08.105Z,9.77
2022-12-20T05:58:35.788Z,9.17
2022-12-20T06:01:04.372Z,12.00
2022-12-20T06:03:32.177Z,11.73
2022-12-20T06:06:00.128Z,11.37
2022-12-20T06:08:27.850Z,14.67
2022-12-20T06:10:56.925Z,12.67
2022-12-20T06:13:24.801Z,10.77
2022-12-20T06:15:53.645Z,10.17
2022-12-20T06:18:21.463Z,9.83
2022-12-20T06:20:50.780Z,11.00
2022-12-20T06:23:18.496Z,9.70
2022-12-20T06:25:46.195Z,10.37
2022-12-20T06:28:16.269Z,10.90
2022-12-20T06:30:43.942Z,9.93
2022-12-20T06:33:11.596Z,10.37
2022-12-20T06:35:39.271Z,9.93
2022-12-20T06:38:06.952Z,10.73
2022-12-20T06:40:34.658Z,10.67
2022-12-20T06:43:02.268Z,9.67
2022-12-20T06:45:36.070Z,11.10
2022-12-20T06:48:07.130Z,10.90
2022-12-20T06:50:34.878Z,8.23
2022-12-20T06:53:02.506Z,9.77
2022-12-20T06:55:30.151Z,10.07
2022-12-20T06:57:58.309Z,10.17
2022-12-20T07:00:26.082Z,10.23
2022-12-20T07:02:55.398Z,10.90
2022-12-20T07:05:23.273Z,10.10
2022-12-20T07:07:51.006Z,11.17
2022-12-20T07:10:18.952Z,11.60
2022-12-20T07:12:48.445Z,10.57
2022-12-20T07:15:16.507Z,11.73
2022-12-20T07:17:44.332Z,10.80
2022-12-20T07:20:14.595Z,7.83
2022-12-20T07:22:42.494Z,8.43
2022-12-20T07:25:11.664Z,9.63
2022-12-20T07:27:39.381Z,8.80
2022-12-20T07:30:07.654Z,9.33
2022-12-20T07:32:35.377Z,8.83
2022-12-20T07:35:03.228Z,7.93
2022-12-20T07:37:32.254Z,9.50
2022-12-20T07:39:59.913Z,7.20
2022-12-20T07:42:33.609Z,9.10
2022-12-20T07:45:04.025Z,7.37
2022-12-20T07:47:31.743Z,9.30
2022-12-20T07:49:59.418Z,5.83
2022-12-20T07:52:28.288Z,8.23
2022-12-20T07:54:59.620Z,5.93
2022-12-20T07:57:30.953Z,7.30
2022-12-20T08:00:00.367Z,7.97
2022-12-20T08:02:30.091Z,5.67
2022-12-20T08:04:57.867Z,6.40
2022-12-20T08:07:25.754Z,5.97
2022-12-20T08:09:53.493Z,7.27
2022-12-20T08:12:22.849Z,8.07
2022-12-20T08:14:52.501Z,7.63
2022-12-20T08:17:20.620Z,6.23
2022-12-20T08:19:48.988Z,6.50
2022-12-20T08:22:16.784Z,7.00
2022-12-20T08:24:44.444Z,7.53
2022-12-20T08:27:12.129Z,5.83
2022-12-20T08:29:41.189Z,7.67
2022-12-20T08:32:08.813Z,5.77
2022-12-20T08:34:36.502Z,6.27
2022-12-20T08:37:07.768Z,5.77
2022-12-20T08:39:40.134Z,6.43
2022-12-20T08:42:07.910Z,6.37
2022-12-20T08:44:35.523Z,7.30
2022-12-20T08:47:04.522Z,7.03
2022-12-20T08:49:32.205Z,5.37
2022-12-20T08:51:59.888Z,6.60
2022-12-20T08:54:27.719Z,7.07
2022-12-20T08:56:55.539Z,6.37
2022-12-20T08:59:23.212Z,6.30
2022-12-20T09:01:51.000Z,6.30
2022-12-20T09:04:20.181Z,5.47
2022-12-20T09:06:47.929Z,14.13
2022-12-20T09:09:16.484Z,6.03
2022-12-20T09:11:44.180Z,5.20
2022-12-20T09:14:11.840Z,5.63
2022-12-20T09:16:40.384Z,5.90
2022-12-20T09:19:11.210Z,6.10
2022-12-20T09:21:40.471Z,6.20
2022-12-20T09:24:08.570Z,6.97
2022-12-20T09:26:36.413Z,6.20
2022-12-20T09:29:04.166Z,5.83
2022-12-20T09:31:32.059Z,5.73
2022-12-20T09:34:00.189Z,8.10
2022-12-20T09:36:28.681Z,6.73
2022-12-20T09:38:58.403Z,6.63
2022-12-20T09:41:31.121Z,7.83
2022-12-20T09:43:58.964Z,5.90
2022-12-20T09:46:27.496Z,6.73
2022-12-20T09:48:55.635Z,5.77
2022-12-20T09:51:30.925Z,5.90
2022-12-20T09:54:06.129Z,5.90
2022-12-20T09:56:35.004Z,6.90
2022-12-20T09:59:03.646Z,7.17
2022-12-20T10:01:38.373Z,5.70
2022-12-20T10:04:08.969Z,6.77
2022-12-20T10:06:45.263Z,6.77
2022-12-20T10:09:19.586Z,5.30
2022-12-20T10:11:54.551Z,6.10
2022-12-20T10:14:39.758Z,5.53
2022-12-20T10:17:11.897Z,5.80
2022-12-20T10:19:48.481Z,6.63
2022-12-20T10:22:20.855Z,6.73
2022-12-20T10:24:54.571Z,5.83
2022-12-20T10:27:22.746Z,6.23
2022-12-20T10:29:50.605Z,5.00
2022-12-20T10:32:19.183Z,6.40
2022-12-20T10:34:52.279Z,4.90
2022-12-20T10:37:19.899Z,5.87
2022-12-20T10:39:48.903Z,5.90
2022-12-20T10:42:30.077Z,6.13
2022-12-20T10:44:58.285Z,5.50
2022-12-20T10:47:31.063Z,4.80
2022-12-20T10:50:09.117Z,5.57
2022-12-20T10:52:37.874Z,5.63
2022-12-20T10:55:25.918Z,5.90
2022-12-20T10:57:55.025Z,6.00
2022-12-20T11:00:29.706Z,4.93
2022-12-20T11:03:04.492Z,4.87
2022-12-20T11:05:32.400Z,5.30
2022-12-20T11:10:48.920Z,3.97
2022-12-20T11:13:22.220Z,4.33
2022-12-20T11:15:51.341Z,4.30
2022-12-20T11:18:24.782Z,4.90
2022-12-20T11:20:54.315Z,4.90
2022-12-20T11:23:27.207Z,5.00
2022-12-20T11:26:05.088Z,4.63
2022-12-20T11:28:40.709Z,5.27
2022-12-20T11:31:12.591Z,4.40
2022-12-20T11:33:50.927Z,4.83
2022-12-20T11:36:24.397Z,4.63
2022-12-20T11:38:55.541Z,4.67
2022-12-20T11:41:29.126Z,4.67
2022-12-20T11:44:25.354Z,6.27
2022-12-20T11:47:05.645Z,4.47
2022-12-20T11:49:50.699Z,4.20
2022-12-20T11:52:21.667Z,4.30
2022-12-20T11:54:51.175Z,4.73
2022-12-20T11:57:22.366Z,5.50
2022-12-20T11:59:54.125Z,4.73
2022-12-20T12:02:26.872Z,4.30
2022-12-20T12:04:56.999Z,3.93
2022-12-20T12:07:27.993Z,4.30
2022-12-20T12:09:58.644Z,4.13
2022-12-20T12:12:28.143Z,3.50
2022-12-20T12:15:01.509Z,3.87
2022-12-20T12:17:33.868Z,4.07
2022-12-20T12:20:05.464Z,4.43
2022-12-20T12:22:35.628Z,4.07
2022-12-20T12:25:05.584Z,5.10
2022-12-20T12:27:34.270Z,5.80
2022-12-20T12:30:03.343Z,6.17
2022-12-20T12:32:33.147Z,3.80
2022-12-20T12:35:07.277Z,5.00
2022-12-20T12:37:46.660Z,5.20
2022-12-20T12:40:31.995Z,4.33
2022-12-20T12:43:14.041Z,3.87
2022-12-20T12:45:44.935Z,5.03
2022-12-20T12:48:16.185Z,4.60
2022-12-20T12:50:47.149Z,4.20
2022-12-20T12:53:17.199Z,3.67
2022-12-20T12:55:45.849Z,4.37
2022-12-20T12:58:28.436Z,3.50
2022-12-20T13:00:58.190Z,2.83
2022-12-20T13:03:42.852Z,6.07
2022-12-20T13:06:29.242Z,4.30
2022-12-20T13:09:12.561Z,4.60
2022-12-20T13:11:46.541Z,3.57
2022-12-20T13:14:29.931Z,3.80
2022-12-20T13:17:25.857Z,4.47
2022-12-20T13:19:55.013Z,3.30
2022-12-20T13:22:23.835Z,3.07
2022-12-20T13:24:56.485Z,3.97
2022-12-20T13:27:25.708Z,4.33
2022-12-20T13:30:10.355Z,2.93
2022-12-20T13:32:57.247Z,4.20
2022-12-20T13:35:47.827Z,3.90
2022-12-20T13:38:34.007Z,4.03
2022-12-20T13:41:02.600Z,3.63
2022-12-20T13:43:35.146Z,3.77
2022-12-20T13:46:13.469Z,3.70
2022-12-20T13:48:45.574Z,4.17
2022-12-20T13:51:17.286Z,2.40
2022-12-20T13:53:50.873Z,2.60
2022-12-20T13:56:33.087Z,2.87
2022-12-20T13:59:05.058Z,3.70
2022-12-20T14:01:34.068Z,2.90
2022-12-20T14:04:07.359Z,3.60
2022-12-20T14:06:35.577Z,3.90
2022-12-20T14:09:05.820Z,3.93
2022-12-20T14:11:33.547Z,4.33
2022-12-20T14:14:01.992Z,3.27
2022-12-20T14:16:30.871Z,3.63
2022-12-20T14:19:02.369Z,3.13
2022-12-20T14:21:33.240Z,3.73
2022-12-20T14:24:01.904Z,4.20
2022-12-20T14:26:30.466Z,3.53
2022-12-20T14:28:59.587Z,3.90
2022-12-20T14:31:29.227Z,5.17
2022-12-20T14:34:03.911Z,5.20
2022-12-20T14:36:33.902Z,3.40
2022-12-20T14:39:01.540Z,4.60
2022-12-20T14:41:33.880Z,4.63
2022-12-20T14:44:04.101Z,4.47
2022-12-20T14:46:32.072Z,3.70
2022-12-20T14:49:30.503Z,5.23
2022-12-20T14:52:08.899Z,6.50
2022-12-20T14:55:07.287Z,5.00
2022-12-20T14:57:26.577Z,5.93
2022-12-20T15:00:07.231Z,5.70
2022-12-20T15:02:36.744Z,7.37
2022-12-20T15:05:08.880Z,5.33
2022-12-20T15:07:41.758Z,5.90
2022-12-20T15:10:09.677Z,6.23
2022-12-20T15:12:42.033Z,5.73
2022-12-20T15:15:28.700Z,6.17
2022-12-20T15:17:57.630Z,8.40
2022-12-20T15:20:25.321Z,9.80
2022-12-20T15:22:54.431Z,9.03
2022-12-20T15:25:22.081Z,8.27
2022-12-20T15:27:49.889Z,8.33
2022-12-20T15:30:18.140Z,7.60
2022-12-20T15:32:55.199Z,8.83
2022-12-20T15:35:24.989Z,8.53
2022-12-20T15:37:54.004Z,7.63
2022-12-20T15:40:21.680Z,9.30
2022-12-20T15:42:49.551Z,10.70
2022-12-20T15:45:17.363Z,9.33
2022-12-20T15:47:45.053Z,7.83
2022-12-20T15:50:13.770Z,8.23
2022-12-20T15:52:41.490Z,7.57
2022-12-20T15:55:12.348Z,9.43
2022-12-20T15:57:40.079Z,8.80
2022-12-20T16:00:08.346Z,9.83
2022-12-20T16:02:36.166Z,9.23
2022-12-20T16:05:04.269Z,8.73
2022-12-20T16:07:31.893Z,9.73
2022-12-20T16:09:59.564Z,10.67
2022-12-20T16:12:29.603Z,9.07
2022-12-20T16:14:57.384Z,8.80
2022-12-20T16:17:25.318Z,9.27
2022-12-20T16:19:53.156Z,10.50
2022-12-20T16:22:22.328Z,10.03
2022-12-20T16:24:50.501Z,9.27
2022-12-20T16:27:18.350Z,13.20
2022-12-20T16:29:47.426Z,15.10
2022-12-20T16:32:16.074Z,10.87
2022-12-20T16:34:43.915Z,15.63
2022-12-20T16:37:12.668Z,13.40
2022-12-20T16:39:40.373Z,13.13
2022-12-20T16:42:10.609Z,14.63
2022-12-20T16:44:42.885Z,16.40
2022-12-20T16:47:12.651Z,17.60
2022-12-20T16:49:45.804Z,17.50
2022-12-20T16:52:19.399Z,13.87
2022-12-20T16:54:47.271Z,13.57
2022-12-20T16:57:15.203Z,10.30
2022-12-20T16:59:43.040Z,12.63
2022-12-20T17:02:20.321Z,14.23
2022-12-20T17:04:48.269Z,16.17
2022-12-20T17:07:16.330Z,12.23
2022-12-20T17:09:43.989Z,12.33
2022-12-20T17:12:15.269Z,11.43
2022-12-20T17:14:43.023Z,15.00
2022-12-20T17:17:11.076Z,13.20
2022-12-20T17:19:41.261Z,10.70
2022-12-20T17:22:24.317Z,17.40
2022-12-20T17:24:52.092Z,10.07
2022-12-20T17:27:19.822Z,10.53
2022-12-20T17:29:47.480Z,12.53
2022-12-20T17:32:19.909Z,11.70
2022-12-20T17:34:49.095Z,12.17
2022-12-20T17:37:17.605Z,9.23
2022-12-20T17:39:45.341Z,8.27
2022-12-20T17:42:14.094Z,8.33
2022-12-20T17:44:41.820Z,10.23
2022-12-20T17:47:09.554Z,10.10
2022-12-20T17:49:37.246Z,9.53
2022-12-20T17:52:06.415Z,9.30
2022-12-20T17:54:39.350Z,11.07
2022-12-20T17:57:13.030Z,11.33
2022-12-20T17:59:40.789Z,9.00
2022-12-20T18:02:16.040Z,9.10
2022-12-20T18:04:44.966Z,9.13
2022-12-20T18:07:14.094Z,10.03
2022-12-20T18:09:41.779Z,9.97
2022-12-20T18:12:11.058Z,9.73
2022-12-20T18:14:38.761Z,9.97
2022-12-20T18:17:06.528Z,9.30
2022-12-20T18:19:34.400Z,11.17
2022-12-20T18:22:04.584Z,11.07
2022-12-20T18:24:33.722Z,10.93
2022-12-20T18:27:01.410Z,11.07
2022-12-20T18:29:29.810Z,12.40
2022-12-20T18:31:57.610Z,10.73
2022-12-20T18:34:25.403Z,9.60
2022-12-20T18:36:53.100Z,8.23
2022-12-20T18:39:20.749Z,7.40
2022-12-20T18:41:49.902Z,6.77
2022-12-20T18:44:17.577Z,7.93
2022-12-20T18:46:45.245Z,7.17
2022-12-20T18:49:12.975Z,7.87
2022-12-20T18:51:40.682Z,8.80
2022-12-20T18:54:09.724Z,7.00
2022-12-20T18:56:38.628Z,7.30
2022-12-20T18:59:11.863Z,7.30
2022-12-20T19:01:41.152Z,6.73
2022-12-20T19:04:09.700Z,7.20
2022-12-20T19:06:38.902Z,6.70
2022-12-20T19:09:07.492Z,5.93
2022-12-20T19:11:35.807Z,5.20
2022-12-20T19:14:03.906Z,5.87
2022-12-20T19:16:33.885Z,6.23
2022-12-20T19:19:01.992Z,6.30
2022-12-20T19:21:30.494Z,6.67
2022-12-20T19:23:59.178Z,6.63
2022-12-20T19:26:28.422Z,6.37
2022-12-20T19:28:56.405Z,6.63
2022-12-20T19:31:25.027Z,5.97
2022-12-20T19:33:54.757Z,5.87
2022-12-20T19:36:25.082Z,6.10
2022-12-20T19:38:55.452Z,5.83
2022-12-20T19:41:23.752Z,7.00
2022-12-20T19:43:52.286Z,7.17
2022-12-20T19:46:25.093Z,6.93
2022-12-20T19:48:57.707Z,6.50
2022-12-20T19:51:25.944Z,6.80
2022-12-20T19:53:54.556Z,6.93
2022-12-20T19:56:22.999Z,7.83
2022-12-20T19:58:50.823Z,7.53
2022-12-20T20:01:19.218Z,7.57
2022-12-20T20:03:47.185Z,7.37
2022-12-20T20:06:16.267Z,9.53
2022-12-20T20:08:44.796Z,9.27
2022-12-20T20:11:13.080Z,9.80
2022-12-20T20:13:41.218Z,8.57
2022-12-20T20:16:09.935Z,9.10
2022-12-20T20:18:38.532Z,7.83
2022-12-20T20:21:07.427Z,8.50
2022-12-20T20:23:37.046Z,8.97
2022-12-20T20:26:07.649Z,8.47
2022-12-20T20:28:41.813Z,7.00
2022-12-20T20:31:12.239Z,9.50
2022-12-20T20:33:40.143Z,10.30
2022-12-20T20:36:08.033Z,6.73
2022-12-20T20:38:37.089Z,8.80
2022-12-20T20:41:04.824Z,8.20
2022-12-20T20:43:37.858Z,9.03
2022-12-20T20:46:06.141Z,8.17
2022-12-20T20:48:33.860Z,8.80
2022-12-20T20:51:01.605Z,9.17
2022-12-20T20:53:33.424Z,9.23
2022-12-20T20:56:03.348Z,8.63
2022-12-20T20:58:31.356Z,8.40
2022-12-20T21:01:00.146Z,8.80
2022-12-20T21:03:28.386Z,8.10
2022-12-20T21:08:44.112Z,6.33
2022-12-20T21:11:13.369Z,6.07
2022-12-20T21:13:41.274Z,5.83
2022-12-20T21:16:10.389Z,6.13
2022-12-20T21:18:38.393Z,5.87
2022-12-20T21:21:07.011Z,6.50
2022-12-20T21:23:34.805Z,6.33
2022-12-20T21:26:02.456Z,5.60
2022-12-20T21:28:31.629Z,4.83
2022-12-20T21:31:00.293Z,6.30
2022-12-20T21:33:28.056Z,6.80
2022-12-20T21:35:59.555Z,6.80
2022-12-20T21:38:27.334Z,6.13
2022-12-20T21:41:00.026Z,5.90
2022-12-20T21:43:27.831Z,6.33
2022-12-20T21:45:57.289Z,7.87
2022-12-20T21:48:25.707Z,6.63
2022-12-20T21:51:00.134Z,6.97
2022-12-20T21:53:27.877Z,6.97
2022-12-20T21:55:57.165Z,8.00
2022-12-20T21:58:24.842Z,7.30
2022-12-20T22:00:55.172Z,7.33
2022-12-20T22:03:25.338Z,5.70
2022-12-20T22:05:54.506Z,6.33
2022-12-20T22:08:22.639Z,7.33
2022-12-20T22:10:50.890Z,7.57
2022-12-20T22:13:18.596Z,8.30
2022-12-20T22:15:46.886Z,7.13
2022-12-20T22:18:14.543Z,6.00
2022-12-20T22:20:44.897Z,6.00
2022-12-20T22:23:12.623Z,5.57
2022-12-20T22:25:40.433Z,7.17
2022-12-20T22:28:08.258Z,7.20
2022-12-20T22:30:35.999Z,6.80
2022-12-20T22:33:03.667Z,6.47
2022-12-20T22:35:33.974Z,6.70
2022-12-20T22:38:03.180Z,7.07
2022-12-20T22:40:31.177Z,7.10
2022-12-20T22:42:58.888Z,4.80
2022-12-20T22:45:26.517Z,5.97
2022-12-20T22:47:54.147Z,5.37
2022-12-20T22:50:21.777Z,5.47
2022-12-20T22:52:49.390Z,6.50
2022-12-20T22:55:18.502Z,6.50
2022-12-20T22:57:46.149Z,6.50
2022-12-20T23:00:14.446Z,6.90
2022-12-20T23:02:42.203Z,5.63
2022-12-20T23:05:10.522Z,5.70
2022-12-20T23:07:38.188Z,5.53
2022-12-20T23:10:26.244Z,5.33
2022-12-20T23:13:12.736Z,6.73
2022-12-20T23:15:43.406Z,6.43
2022-12-20T23:18:11.058Z,6.80
2022-12-20T23:20:59.364Z,6.13
2022-12-20T23:23:26.985Z,6.30
2022-12-20T23:25:54.614Z,5.40
2022-12-20T23:28:23.732Z,5.87
2022-12-20T23:30:51.302Z,8.47
2022-12-20T23:33:19.266Z,7.43
2022-12-20T23:35:46.965Z,6.83
2022-12-20T23:38:14.598Z,6.10
2022-12-20T23:40:42.240Z,5.93
2022-12-20T23:43:09.856Z,6.07
2022-12-20T23:45:38.837Z,5.47
2022-12-20T23:48:06.925Z,6.37
2022-12-20T23:50:34.823Z,6.73
2022-12-20T23:53:02.452Z,7.63
2022-12-20T23:55:30.077Z,7.30
2022-12-20T23:57:57.766Z,7.93
